sensor_id;sensor_type;location;lat;lon;timestamp;temperature;humidity
22544;DHT22;11438;52.044;8.716;2022-09-03T00:00:11;20.40;52.70
22544;DHT22;11438;52.044;8.716;2022-09-03T00:02:53;20.40;52.90
22544;DHT22;11438;52.044;8.716;2022-09-03T00:08:23;20.30;52.90
22544;DHT22;11438;52.044;8.716;2022-09-03T00:11:09;20.30;53.00
22544;DHT22;11438;52.044;8.716;2022-09-03T00:13:57;20.20;53.00
22544;DHT22;11438;52.044;8.716;2022-09-03T00:16:27;20.20;53.10
22544;DHT22;11438;52.044;8.716;2022-09-03T00:18:58;20.20;53.20
22544;DHT22;11438;52.044;8.716;2022-09-03T00:21:44;20.10;53.30
22544;DHT22;11438;52.044;8.716;2022-09-03T00:24:13;20.10;53.30
22544;DHT22;11438;52.044;8.716;2022-09-03T00:26:42;20.10;53.50
22544;DHT22;11438;52.044;8.716;2022-09-03T00:29:36;20.10;53.70
22544;DHT22;11438;52.044;8.716;2022-09-03T00:32:13;20.10;53.70
22544;DHT22;11438;52.044;8.716;2022-09-03T00:34:45;20.00;53.80
22544;DHT22;11438;52.044;8.716;2022-09-03T00:37:13;20.00;53.80
22544;DHT22;11438;52.044;8.716;2022-09-03T00:39:38;20.00;54.00
22544;DHT22;11438;52.044;8.716;2022-09-03T00:48:24;19.90;54.40
22544;DHT22;11438;52.044;8.716;2022-09-03T00:51:26;19.90;54.30
22544;DHT22;11438;52.044;8.716;2022-09-03T00:59:34;19.70;54.50
22544;DHT22;11438;52.044;8.716;2022-09-03T01:02:14;19.70;54.90
22544;DHT22;11438;52.044;8.716;2022-09-03T01:05:00;19.70;54.90
22544;DHT22;11438;52.044;8.716;2022-09-03T01:07:45;19.60;55.00
22544;DHT22;11438;52.044;8.716;2022-09-03T01:10:38;19.60;55.30
22544;DHT22;11438;52.044;8.716;2022-09-03T01:13:15;19.50;55.50
22544;DHT22;11438;52.044;8.716;2022-09-03T01:21:48;19.40;55.50
22544;DHT22;11438;52.044;8.716;2022-09-03T01:24:43;19.40;55.80
22544;DHT22;11438;52.044;8.716;2022-09-03T01:30:08;19.30;55.80
22544;DHT22;11438;52.044;8.716;2022-09-03T01:35:45;19.30;56.00
22544;DHT22;11438;52.044;8.716;2022-09-03T01:41:33;19.20;56.30
22544;DHT22;11438;52.044;8.716;2022-09-03T01:45:02;19.20;56.20
22544;DHT22;11438;52.044;8.716;2022-09-03T01:50:14;19.20;56.50
22544;DHT22;11438;52.044;8.716;2022-09-03T01:52:58;19.10;56.60
22544;DHT22;11438;52.044;8.716;2022-09-03T01:55:32;19.10;56.70
22544;DHT22;11438;52.044;8.716;2022-09-03T02:00:53;19.10;56.90
22544;DHT22;11438;52.044;8.716;2022-09-03T02:03:22;19.00;56.90
22544;DHT22;11438;52.044;8.716;2022-09-03T02:05:48;19.00;57.10
22544;DHT22;11438;52.044;8.716;2022-09-03T02:08:17;19.00;57.10
22544;DHT22;11438;52.044;8.716;2022-09-03T02:10:54;19.00;57.30
22544;DHT22;11438;52.044;8.716;2022-09-03T02:13:30;18.90;57.40
22544;DHT22;11438;52.044;8.716;2022-09-03T02:16:03;18.90;57.50
22544;DHT22;11438;52.044;8.716;2022-09-03T02:18:36;18.90;57.70
22544;DHT22;11438;52.044;8.716;2022-09-03T02:21:04;18.90;57.70
22544;DHT22;11438;52.044;8.716;2022-09-03T02:23:29;18.90;57.80
22544;DHT22;11438;52.044;8.716;2022-09-03T02:25:57;18.90;57.80
22544;DHT22;11438;52.044;8.716;2022-09-03T02:28:25;18.80;57.90
22544;DHT22;11438;52.044;8.716;2022-09-03T02:30:52;18.80;58.20
22544;DHT22;11438;52.044;8.716;2022-09-03T02:33:17;18.80;58.10
22544;DHT22;11438;52.044;8.716;2022-09-03T02:35:44;18.80;58.20
22544;DHT22;11438;52.044;8.716;2022-09-03T02:38:16;18.80;58.10
22544;DHT22;11438;52.044;8.716;2022-09-03T02:40:43;18.80;58.30
22544;DHT22;11438;52.044;8.716;2022-09-03T02:46:04;18.70;58.40
22544;DHT22;11438;52.044;8.716;2022-09-03T02:48:32;18.70;58.40
22544;DHT22;11438;52.044;8.716;2022-09-03T02:50:57;18.70;58.40
22544;DHT22;11438;52.044;8.716;2022-09-03T02:53:23;18.70;58.40
22544;DHT22;11438;52.044;8.716;2022-09-03T02:55:49;18.70;58.60
22544;DHT22;11438;52.044;8.716;2022-09-03T02:58:15;18.70;58.60
22544;DHT22;11438;52.044;8.716;2022-09-03T03:00:40;18.70;58.80
22544;DHT22;11438;52.044;8.716;2022-09-03T03:03:06;18.70;58.70
22544;DHT22;11438;52.044;8.716;2022-09-03T03:05:47;18.60;58.70
22544;DHT22;11438;52.044;8.716;2022-09-03T03:08:16;18.60;58.90
22544;DHT22;11438;52.044;8.716;2022-09-03T03:10:46;18.60;59.00
22544;DHT22;11438;52.044;8.716;2022-09-03T03:13:12;18.60;59.20
22544;DHT22;11438;52.044;8.716;2022-09-03T03:15:38;18.60;59.30
22544;DHT22;11438;52.044;8.716;2022-09-03T03:18:03;18.60;59.20
22544;DHT22;11438;52.044;8.716;2022-09-03T03:20:29;18.60;59.50
22544;DHT22;11438;52.044;8.716;2022-09-03T03:22:55;18.60;59.40
22544;DHT22;11438;52.044;8.716;2022-09-03T03:25:20;18.50;59.50
22544;DHT22;11438;52.044;8.716;2022-09-03T03:27:46;18.50;59.50
22544;DHT22;11438;52.044;8.716;2022-09-03T03:30:12;18.50;59.90
22544;DHT22;11438;52.044;8.716;2022-09-03T03:32:38;18.50;60.00
22544;DHT22;11438;52.044;8.716;2022-09-03T03:35:05;18.40;60.00
22544;DHT22;11438;52.044;8.716;2022-09-03T03:37:32;18.40;60.00
22544;DHT22;11438;52.044;8.716;2022-09-03T03:39:57;18.40;60.00
22544;DHT22;11438;52.044;8.716;2022-09-03T03:42:23;18.40;60.00
22544;DHT22;11438;52.044;8.716;2022-09-03T03:44:48;18.40;60.00
22544;DHT22;11438;52.044;8.716;2022-09-03T03:47:14;18.40;60.10
22544;DHT22;11438;52.044;8.716;2022-09-03T03:49:41;18.40;60.30
22544;DHT22;11438;52.044;8.716;2022-09-03T03:52:07;18.40;60.40
22544;DHT22;11438;52.044;8.716;2022-09-03T03:54:33;18.40;60.60
22544;DHT22;11438;52.044;8.716;2022-09-03T03:56:59;18.40;60.50
22544;DHT22;11438;52.044;8.716;2022-09-03T03:59:24;18.30;60.60
22544;DHT22;11438;52.044;8.716;2022-09-03T04:01:50;18.30;60.80
22544;DHT22;11438;52.044;8.716;2022-09-03T04:04:16;18.30;60.90
22544;DHT22;11438;52.044;8.716;2022-09-03T04:06:42;18.30;60.90
22544;DHT22;11438;52.044;8.716;2022-09-03T04:09:07;18.30;61.00
22544;DHT22;11438;52.044;8.716;2022-09-03T04:11:33;18.30;62.00
22544;DHT22;11438;52.044;8.716;2022-09-03T04:13:58;18.20;61.30
22544;DHT22;11438;52.044;8.716;2022-09-03T04:16:27;18.20;61.10
22544;DHT22;11438;52.044;8.716;2022-09-03T04:18:54;18.20;61.20
22544;DHT22;11438;52.044;8.716;2022-09-03T04:21:22;18.20;61.30
22544;DHT22;11438;52.044;8.716;2022-09-03T04:23:50;18.20;61.50
22544;DHT22;11438;52.044;8.716;2022-09-03T04:26:19;18.20;61.50
22544;DHT22;11438;52.044;8.716;2022-09-03T04:28:45;18.10;61.50
22544;DHT22;11438;52.044;8.716;2022-09-03T04:31:12;18.10;61.50
22544;DHT22;11438;52.044;8.716;2022-09-03T04:33:38;18.10;61.70
22544;DHT22;11438;52.044;8.716;2022-09-03T04:36:06;18.10;61.80
22544;DHT22;11438;52.044;8.716;2022-09-03T04:38:33;18.10;61.90
22544;DHT22;11438;52.044;8.716;2022-09-03T04:40:58;18.00;62.10
22544;DHT22;11438;52.044;8.716;2022-09-03T04:43:25;18.00;62.40
22544;DHT22;11438;52.044;8.716;2022-09-03T04:45:55;18.00;62.40
22544;DHT22;11438;52.044;8.716;2022-09-03T04:48:21;18.00;62.60
22544;DHT22;11438;52.044;8.716;2022-09-03T04:50:47;17.90;62.70
22544;DHT22;11438;52.044;8.716;2022-09-03T04:53:12;18.00;62.60
22544;DHT22;11438;52.044;8.716;2022-09-03T04:55:38;17.90;62.80
22544;DHT22;11438;52.044;8.716;2022-09-03T04:58:04;17.90;63.00
22544;DHT22;11438;52.044;8.716;2022-09-03T05:00:32;17.90;63.10
22544;DHT22;11438;52.044;8.716;2022-09-03T05:02:59;17.90;62.90
22544;DHT22;11438;52.044;8.716;2022-09-03T05:05:25;17.90;63.50
22544;DHT22;11438;52.044;8.716;2022-09-03T05:07:50;17.90;63.50
22544;DHT22;11438;52.044;8.716;2022-09-03T05:10:17;17.90;63.60
22544;DHT22;11438;52.044;8.716;2022-09-03T05:12:47;17.80;63.60
22544;DHT22;11438;52.044;8.716;2022-09-03T05:15:14;17.90;63.70
22544;DHT22;11438;52.044;8.716;2022-09-03T05:17:40;17.80;63.80
22544;DHT22;11438;52.044;8.716;2022-09-03T05:20:05;17.90;64.40
22544;DHT22;11438;52.044;8.716;2022-09-03T05:22:33;17.90;64.40
22544;DHT22;11438;52.044;8.716;2022-09-03T05:24:59;17.90;64.30
22544;DHT22;11438;52.044;8.716;2022-09-03T05:27:25;17.90;64.50
22544;DHT22;11438;52.044;8.716;2022-09-03T05:29:50;17.90;64.70
22544;DHT22;11438;52.044;8.716;2022-09-03T05:32:16;17.90;64.60
22544;DHT22;11438;52.044;8.716;2022-09-03T05:34:42;17.90;64.80
22544;DHT22;11438;52.044;8.716;2022-09-03T05:37:08;17.90;65.00
22544;DHT22;11438;52.044;8.716;2022-09-03T05:39:34;17.90;65.10
22544;DHT22;11438;52.044;8.716;2022-09-03T05:42:00;18.00;65.30
22544;DHT22;11438;52.044;8.716;2022-09-03T05:44:25;18.00;65.20
22544;DHT22;11438;52.044;8.716;2022-09-03T05:46:51;18.00;65.30
22544;DHT22;11438;52.044;8.716;2022-09-03T05:49:17;18.00;65.50
22544;DHT22;11438;52.044;8.716;2022-09-03T05:51:43;18.10;65.40
22544;DHT22;11438;52.044;8.716;2022-09-03T05:54:09;18.10;65.80
22544;DHT22;11438;52.044;8.716;2022-09-03T05:56:36;18.10;66.20
22544;DHT22;11438;52.044;8.716;2022-09-03T05:59:05;18.10;65.90
22544;DHT22;11438;52.044;8.716;2022-09-03T06:01:51;18.10;66.10
22544;DHT22;11438;52.044;8.716;2022-09-03T06:04:17;18.10;66.00
22544;DHT22;11438;52.044;8.716;2022-09-03T06:06:45;18.20;66.20
22544;DHT22;11438;52.044;8.716;2022-09-03T06:09:14;18.20;66.60
22544;DHT22;11438;52.044;8.716;2022-09-03T06:11:41;18.20;66.40
22544;DHT22;11438;52.044;8.716;2022-09-03T06:14:09;18.30;66.50
22544;DHT22;11438;52.044;8.716;2022-09-03T06:16:41;18.30;67.00
22544;DHT22;11438;52.044;8.716;2022-09-03T06:19:08;18.30;66.90
22544;DHT22;11438;52.044;8.716;2022-09-03T06:21:41;18.40;66.80
22544;DHT22;11438;52.044;8.716;2022-09-03T06:24:08;18.40;66.50
22544;DHT22;11438;52.044;8.716;2022-09-03T06:26:35;18.40;66.80
22544;DHT22;11438;52.044;8.716;2022-09-03T06:29:01;18.50;66.60
22544;DHT22;11438;52.044;8.716;2022-09-03T06:31:26;18.50;66.80
22544;DHT22;11438;52.044;8.716;2022-09-03T06:33:52;18.50;66.60
22544;DHT22;11438;52.044;8.716;2022-09-03T06:36:19;18.50;66.70
22544;DHT22;11438;52.044;8.716;2022-09-03T06:38:46;18.60;66.80
22544;DHT22;11438;52.044;8.716;2022-09-03T06:41:17;18.60;67.10
22544;DHT22;11438;52.044;8.716;2022-09-03T06:43:46;18.60;67.10
22544;DHT22;11438;52.044;8.716;2022-09-03T06:46:18;18.60;67.10
22544;DHT22;11438;52.044;8.716;2022-09-03T06:48:44;18.70;66.90
22544;DHT22;11438;52.044;8.716;2022-09-03T06:51:18;18.80;67.10
22544;DHT22;11438;52.044;8.716;2022-09-03T06:53:46;18.80;66.80
22544;DHT22;11438;52.044;8.716;2022-09-03T06:56:14;18.80;66.80
22544;DHT22;11438;52.044;8.716;2022-09-03T06:58:43;18.90;66.80
22544;DHT22;11438;52.044;8.716;2022-09-03T07:01:11;19.00;66.80
22544;DHT22;11438;52.044;8.716;2022-09-03T07:03:39;19.00;66.70
22544;DHT22;11438;52.044;8.716;2022-09-03T07:06:10;19.00;66.50
22544;DHT22;11438;52.044;8.716;2022-09-03T07:08:36;19.10;66.80
22544;DHT22;11438;52.044;8.716;2022-09-03T07:11:04;19.10;66.70
22544;DHT22;11438;52.044;8.716;2022-09-03T07:13:34;19.20;66.70
22544;DHT22;11438;52.044;8.716;2022-09-03T07:18:25;19.20;66.70
22544;DHT22;11438;52.044;8.716;2022-09-03T07:20:51;19.30;66.90
22544;DHT22;11438;52.044;8.716;2022-09-03T07:23:16;19.30;66.70
22544;DHT22;11438;52.044;8.716;2022-09-03T07:25:42;19.30;66.80
22544;DHT22;11438;52.044;8.716;2022-09-03T07:28:08;19.30;66.80
22544;DHT22;11438;52.044;8.716;2022-09-03T07:30:33;19.40;66.80
22544;DHT22;11438;52.044;8.716;2022-09-03T07:32:59;19.40;66.90
22544;DHT22;11438;52.044;8.716;2022-09-03T07:35:28;19.50;66.80
22544;DHT22;11438;52.044;8.716;2022-09-03T07:37:55;19.50;66.90
22544;DHT22;11438;52.044;8.716;2022-09-03T07:40:20;19.60;66.70
22544;DHT22;11438;52.044;8.716;2022-09-03T07:42:46;19.60;66.50
22544;DHT22;11438;52.044;8.716;2022-09-03T07:45:12;19.70;66.70
22544;DHT22;11438;52.044;8.716;2022-09-03T07:47:45;19.70;66.50
22544;DHT22;11438;52.044;8.716;2022-09-03T07:50:12;19.80;66.20
22544;DHT22;11438;52.044;8.716;2022-09-03T07:52:37;19.90;66.40
22544;DHT22;11438;52.044;8.716;2022-09-03T07:55:03;19.90;66.50
22544;DHT22;11438;52.044;8.716;2022-09-03T07:57:29;20.00;66.20
22544;DHT22;11438;52.044;8.716;2022-09-03T07:59:54;20.10;66.60
22544;DHT22;11438;52.044;8.716;2022-09-03T08:02:20;20.10;65.90
22544;DHT22;11438;52.044;8.716;2022-09-03T08:04:46;20.20;66.40
22544;DHT22;11438;52.044;8.716;2022-09-03T08:07:11;20.30;66.40
22544;DHT22;11438;52.044;8.716;2022-09-03T08:09:37;20.30;66.40
22544;DHT22;11438;52.044;8.716;2022-09-03T08:12:03;20.40;66.30
22544;DHT22;11438;52.044;8.716;2022-09-03T08:14:28;20.50;65.80
22544;DHT22;11438;52.044;8.716;2022-09-03T08:16:55;20.60;66.20
22544;DHT22;11438;52.044;8.716;2022-09-03T08:19:24;20.60;65.60
22544;DHT22;11438;52.044;8.716;2022-09-03T08:21:49;20.70;65.60
22544;DHT22;11438;52.044;8.716;2022-09-03T08:24:16;20.80;65.40
22544;DHT22;11438;52.044;8.716;2022-09-03T08:26:43;20.90;65.00
22544;DHT22;11438;52.044;8.716;2022-09-03T08:29:08;20.90;64.70
22544;DHT22;11438;52.044;8.716;2022-09-03T08:31:35;21.00;64.40
22544;DHT22;11438;52.044;8.716;2022-09-03T08:34:02;21.10;64.30
22544;DHT22;11438;52.044;8.716;2022-09-03T08:36:32;21.20;63.60
22544;DHT22;11438;52.044;8.716;2022-09-03T08:38:59;21.20;63.70
22544;DHT22;11438;52.044;8.716;2022-09-03T08:44:28;21.40;63.10
22544;DHT22;11438;52.044;8.716;2022-09-03T08:47:04;21.50;62.90
22544;DHT22;11438;52.044;8.716;2022-09-03T08:54:47;21.70;61.50
22544;DHT22;11438;52.044;8.716;2022-09-03T08:57:15;21.80;61.20
22544;DHT22;11438;52.044;8.716;2022-09-03T08:59:43;21.90;61.60
22544;DHT22;11438;52.044;8.716;2022-09-03T09:05:06;22.00;61.20
22544;DHT22;11438;52.044;8.716;2022-09-03T09:10:45;22.20;60.90
22544;DHT22;11438;52.044;8.716;2022-09-03T09:13:16;22.30;60.50
22544;DHT22;11438;52.044;8.716;2022-09-03T09:19:02;22.40;59.80
22544;DHT22;11438;52.044;8.716;2022-09-03T09:21:39;22.50;60.00
22544;DHT22;11438;52.044;8.716;2022-09-03T09:24:17;22.60;60.00
22544;DHT22;11438;52.044;8.716;2022-09-03T09:26:46;22.60;59.90
22544;DHT22;11438;52.044;8.716;2022-09-03T09:29:13;22.70;59.40
22544;DHT22;11438;52.044;8.716;2022-09-03T09:31:40;22.70;59.70
22544;DHT22;11438;52.044;8.716;2022-09-03T09:34:09;22.80;59.90
22544;DHT22;11438;52.044;8.716;2022-09-03T09:36:50;22.90;58.80
22544;DHT22;11438;52.044;8.716;2022-09-03T09:39:16;22.90;59.30
22544;DHT22;11438;52.044;8.716;2022-09-03T09:41:43;23.00;58.90
22544;DHT22;11438;52.044;8.716;2022-09-03T09:44:20;23.10;58.60
22544;DHT22;11438;52.044;8.716;2022-09-03T09:46:46;23.10;58.20
22544;DHT22;11438;52.044;8.716;2022-09-03T09:49:31;23.20;57.80
22544;DHT22;11438;52.044;8.716;2022-09-03T09:52:13;23.30;57.60
22544;DHT22;11438;52.044;8.716;2022-09-03T09:54:40;23.30;57.40
22544;DHT22;11438;52.044;8.716;2022-09-03T09:57:16;23.40;57.60
22544;DHT22;11438;52.044;8.716;2022-09-03T09:59:43;23.50;57.30
22544;DHT22;11438;52.044;8.716;2022-09-03T10:02:24;23.50;57.30
22544;DHT22;11438;52.044;8.716;2022-09-03T10:05:00;23.50;57.60
22544;DHT22;11438;52.044;8.716;2022-09-03T10:07:35;23.60;57.40
22544;DHT22;11438;52.044;8.716;2022-09-03T10:10:15;23.70;57.10
22544;DHT22;11438;52.044;8.716;2022-09-03T10:12:45;23.70;57.30
22544;DHT22;11438;52.044;8.716;2022-09-03T10:18:22;23.80;56.70
22544;DHT22;11438;52.044;8.716;2022-09-03T10:21:12;23.90;56.80
22544;DHT22;11438;52.044;8.716;2022-09-03T10:26:35;24.00;56.40
22544;DHT22;11438;52.044;8.716;2022-09-03T10:29:06;24.10;56.50
22544;DHT22;11438;52.044;8.716;2022-09-03T10:31:57;24.10;55.90
22544;DHT22;11438;52.044;8.716;2022-09-03T10:34:44;24.20;56.40
22544;DHT22;11438;52.044;8.716;2022-09-03T10:37:34;24.30;55.30
22544;DHT22;11438;52.044;8.716;2022-09-03T10:46:09;24.50;55.00
22544;DHT22;11438;52.044;8.716;2022-09-03T10:49:08;24.60;55.20
22544;DHT22;11438;52.044;8.716;2022-09-03T10:52:32;24.60;54.60
22544;DHT22;11438;52.044;8.716;2022-09-03T10:54:37;24.60;54.30
22544;DHT22;11438;52.044;8.716;2022-09-03T10:57:24;24.80;54.20
22544;DHT22;11438;52.044;8.716;2022-09-03T11:00:05;24.80;53.90
22544;DHT22;11438;52.044;8.716;2022-09-03T11:05:45;25.00;53.30
22544;DHT22;11438;52.044;8.716;2022-09-03T11:11:06;25.10;53.10
22544;DHT22;11438;52.044;8.716;2022-09-03T11:13:44;25.20;52.50
22544;DHT22;11438;52.044;8.716;2022-09-03T11:16:17;25.20;52.10
22544;DHT22;11438;52.044;8.716;2022-09-03T11:19:01;25.30;52.60
22544;DHT22;11438;52.044;8.716;2022-09-03T11:21:30;25.40;51.40
22544;DHT22;11438;52.044;8.716;2022-09-03T11:24:18;25.40;51.70
22544;DHT22;11438;52.044;8.716;2022-09-03T11:26:48;25.50;51.70
22544;DHT22;11438;52.044;8.716;2022-09-03T11:29:19;25.50;51.40
22544;DHT22;11438;52.044;8.716;2022-09-03T11:32:00;25.60;51.40
22544;DHT22;11438;52.044;8.716;2022-09-03T11:34:31;25.60;51.20
22544;DHT22;11438;52.044;8.716;2022-09-03T11:37:20;25.70;51.00
22544;DHT22;11438;52.044;8.716;2022-09-03T11:39:57;25.80;50.90
22544;DHT22;11438;52.044;8.716;2022-09-03T11:42:34;25.80;51.20
22544;DHT22;11438;52.044;8.716;2022-09-03T11:47:50;26.00;50.60
22544;DHT22;11438;52.044;8.716;2022-09-03T11:50:23;26.00;50.40
22544;DHT22;11438;52.044;8.716;2022-09-03T11:52:51;26.10;50.50
22544;DHT22;11438;52.044;8.716;2022-09-03T11:55:32;26.10;50.10
22544;DHT22;11438;52.044;8.716;2022-09-03T11:58:11;26.20;49.90
22544;DHT22;11438;52.044;8.716;2022-09-03T12:00:37;26.20;50.10
22544;DHT22;11438;52.044;8.716;2022-09-03T12:03:06;26.30;49.80
22544;DHT22;11438;52.044;8.716;2022-09-03T12:08:52;26.30;49.90
22544;DHT22;11438;52.044;8.716;2022-09-03T12:11:44;26.40;50.10
22544;DHT22;11438;52.044;8.716;2022-09-03T12:14:26;26.50;49.80
22544;DHT22;11438;52.044;8.716;2022-09-03T12:17:10;26.60;49.30
22544;DHT22;11438;52.044;8.716;2022-09-03T12:22:16;26.60;48.80
22544;DHT22;11438;52.044;8.716;2022-09-03T12:24:42;26.70;49.40
22544;DHT22;11438;52.044;8.716;2022-09-03T12:27:23;26.80;49.30
22544;DHT22;11438;52.044;8.716;2022-09-03T12:29:52;26.80;48.90
22544;DHT22;11438;52.044;8.716;2022-09-03T12:32:20;26.90;48.50
22544;DHT22;11438;52.044;8.716;2022-09-03T12:34:45;27.00;48.70
22544;DHT22;11438;52.044;8.716;2022-09-03T12:37:20;27.00;48.20
22544;DHT22;11438;52.044;8.716;2022-09-03T12:39:57;27.10;47.90
22544;DHT22;11438;52.044;8.716;2022-09-03T12:42:25;27.20;47.80
22544;DHT22;11438;52.044;8.716;2022-09-03T12:44:51;27.30;47.50
22544;DHT22;11438;52.044;8.716;2022-09-03T12:47:22;27.30;47.80
22544;DHT22;11438;52.044;8.716;2022-09-03T12:49:50;27.40;47.20
22544;DHT22;11438;52.044;8.716;2022-09-03T12:55:04;27.40;46.80
22544;DHT22;11438;52.044;8.716;2022-09-03T12:57:55;27.50;46.40
22544;DHT22;11438;52.044;8.716;2022-09-03T13:00:21;27.60;47.20
22544;DHT22;11438;52.044;8.716;2022-09-03T13:02:57;27.60;46.40
22544;DHT22;11438;52.044;8.716;2022-09-03T13:05:34;27.60;46.40
22544;DHT22;11438;52.044;8.716;2022-09-03T13:08:01;27.70;46.60
22544;DHT22;11438;52.044;8.716;2022-09-03T13:10:34;27.70;46.90
22544;DHT22;11438;52.044;8.716;2022-09-03T13:13:16;27.70;46.40
22544;DHT22;11438;52.044;8.716;2022-09-03T13:30:20;27.90;46.10
22544;DHT22;11438;52.044;8.716;2022-09-03T13:32:59;27.80;45.50
22544;DHT22;11438;52.044;8.716;2022-09-03T13:38:55;27.90;45.80
22544;DHT22;11438;52.044;8.716;2022-09-03T13:44:22;27.80;45.50
22544;DHT22;11438;52.044;8.716;2022-09-03T13:46:59;27.80;45.40
22544;DHT22;11438;52.044;8.716;2022-09-03T13:49:55;27.80;45.40
22544;DHT22;11438;52.044;8.716;2022-09-03T13:53:29;27.80;45.80
22544;DHT22;11438;52.044;8.716;2022-09-03T13:56:01;27.90;45.10
22544;DHT22;11438;52.044;8.716;2022-09-03T13:59:11;27.90;45.00
22544;DHT22;11438;52.044;8.716;2022-09-03T14:04:20;27.90;45.00
22544;DHT22;11438;52.044;8.716;2022-09-03T14:07:10;28.00;45.00
22544;DHT22;11438;52.044;8.716;2022-09-03T14:09:47;28.00;45.30
22544;DHT22;11438;52.044;8.716;2022-09-03T14:12:28;28.00;44.90
22544;DHT22;11438;52.044;8.716;2022-09-03T14:21:00;28.10;44.60
22544;DHT22;11438;52.044;8.716;2022-09-03T14:26:02;28.10;44.50
22544;DHT22;11438;52.044;8.716;2022-09-03T14:28:42;28.20;44.20
22544;DHT22;11438;52.044;8.716;2022-09-03T14:33:53;28.10;44.30
22544;DHT22;11438;52.044;8.716;2022-09-03T14:36:35;28.10;43.70
22544;DHT22;11438;52.044;8.716;2022-09-03T14:39:27;28.20;44.10
22544;DHT22;11438;52.044;8.716;2022-09-03T14:48:12;28.10;44.10
22544;DHT22;11438;52.044;8.716;2022-09-03T14:53:47;28.20;43.70
22544;DHT22;11438;52.044;8.716;2022-09-03T14:56:46;28.20;44.10
22544;DHT22;11438;52.044;8.716;2022-09-03T14:59:29;28.20;43.60
22544;DHT22;11438;52.044;8.716;2022-09-03T15:02:13;28.20;43.60
22544;DHT22;11438;52.044;8.716;2022-09-03T15:05:09;28.20;43.30
22544;DHT22;11438;52.044;8.716;2022-09-03T15:07:47;28.20;43.20
22544;DHT22;11438;52.044;8.716;2022-09-03T15:10:29;28.30;43.20
22544;DHT22;11438;52.044;8.716;2022-09-03T15:12:59;28.30;42.40
22544;DHT22;11438;52.044;8.716;2022-09-03T15:20:52;28.40;42.80
22544;DHT22;11438;52.044;8.716;2022-09-03T15:26:37;28.40;42.60
22544;DHT22;11438;52.044;8.716;2022-09-03T15:37:57;28.50;42.40
22544;DHT22;11438;52.044;8.716;2022-09-03T15:40:27;28.50;42.60
22544;DHT22;11438;52.044;8.716;2022-09-03T15:43:09;28.50;42.30
22544;DHT22;11438;52.044;8.716;2022-09-03T15:45:40;28.50;42.20
22544;DHT22;11438;52.044;8.716;2022-09-03T15:48:36;28.50;42.30
22544;DHT22;11438;52.044;8.716;2022-09-03T15:51:21;28.40;42.20
22544;DHT22;11438;52.044;8.716;2022-09-03T15:53:59;28.50;41.90
22544;DHT22;11438;52.044;8.716;2022-09-03T15:56:34;28.40;41.80
22544;DHT22;11438;52.044;8.716;2022-09-03T15:59:36;28.40;41.50
22544;DHT22;11438;52.044;8.716;2022-09-03T16:02:19;28.40;41.90
22544;DHT22;11438;52.044;8.716;2022-09-03T16:07:30;28.40;42.20
22544;DHT22;11438;52.044;8.716;2022-09-03T16:10:14;28.40;42.10
22544;DHT22;11438;52.044;8.716;2022-09-03T16:13:02;28.40;42.00
22544;DHT22;11438;52.044;8.716;2022-09-03T16:15:39;28.40;41.90
22544;DHT22;11438;52.044;8.716;2022-09-03T16:21:05;28.30;42.10
22544;DHT22;11438;52.044;8.716;2022-09-03T16:23:40;28.20;42.00
22544;DHT22;11438;52.044;8.716;2022-09-03T16:26:17;28.20;41.90
22544;DHT22;11438;52.044;8.716;2022-09-03T16:28:55;28.20;42.00
22544;DHT22;11438;52.044;8.716;2022-09-03T16:34:37;28.10;41.90
22544;DHT22;11438;52.044;8.716;2022-09-03T16:37:27;28.10;41.60
22544;DHT22;11438;52.044;8.716;2022-09-03T16:40:05;28.00;42.10
22544;DHT22;11438;52.044;8.716;2022-09-03T16:48:16;27.90;42.00
22544;DHT22;11438;52.044;8.716;2022-09-03T16:51:01;27.90;42.00
22544;DHT22;11438;52.044;8.716;2022-09-03T16:58:59;27.80;42.20
22544;DHT22;11438;52.044;8.716;2022-09-03T17:01:35;27.80;42.10
22544;DHT22;11438;52.044;8.716;2022-09-03T17:07:35;27.70;42.30
22544;DHT22;11438;52.044;8.716;2022-09-03T17:10:17;27.60;42.20
22544;DHT22;11438;52.044;8.716;2022-09-03T17:15:50;27.50;42.30
22544;DHT22;11438;52.044;8.716;2022-09-03T17:18:45;27.50;42.10
22544;DHT22;11438;52.044;8.716;2022-09-03T17:26:52;27.30;42.20
22544;DHT22;11438;52.044;8.716;2022-09-03T17:35:18;27.20;42.60
22544;DHT22;11438;52.044;8.716;2022-09-03T17:43:21;27.00;42.90
22544;DHT22;11438;52.044;8.716;2022-09-03T17:46:15;26.90;43.20
22544;DHT22;11438;52.044;8.716;2022-09-03T17:51:33;26.90;43.30
22544;DHT22;11438;52.044;8.716;2022-09-03T17:54:23;26.70;43.20
22544;DHT22;11438;52.044;8.716;2022-09-03T17:57:12;26.70;43.40
22544;DHT22;11438;52.044;8.716;2022-09-03T18:02:35;26.60;43.90
22544;DHT22;11438;52.044;8.716;2022-09-03T18:07:53;26.50;44.20
22544;DHT22;11438;52.044;8.716;2022-09-03T18:13:24;26.40;44.10
22544;DHT22;11438;52.044;8.716;2022-09-03T18:16:23;26.30;44.30
22544;DHT22;11438;52.044;8.716;2022-09-03T18:18:49;26.30;44.60
22544;DHT22;11438;52.044;8.716;2022-09-03T18:21:24;26.30;44.80
22544;DHT22;11438;52.044;8.716;2022-09-03T18:24:20;26.20;44.90
22544;DHT22;11438;52.044;8.716;2022-09-03T18:27:15;26.10;44.80
22544;DHT22;11438;52.044;8.716;2022-09-03T18:30:09;26.10;45.30
22544;DHT22;11438;52.044;8.716;2022-09-03T18:32:55;26.00;45.20
22544;DHT22;11438;52.044;8.716;2022-09-03T18:35:38;25.90;45.30
22544;DHT22;11438;52.044;8.716;2022-09-03T18:38:29;25.80;45.50
22544;DHT22;11438;52.044;8.716;2022-09-03T18:41:51;25.80;45.80
22544;DHT22;11438;52.044;8.716;2022-09-03T18:45:06;25.70;45.80
22544;DHT22;11438;52.044;8.716;2022-09-03T18:48:14;25.60;46.00
22544;DHT22;11438;52.044;8.716;2022-09-03T18:56:55;25.30;47.10
22544;DHT22;11438;52.044;8.716;2022-09-03T19:02:46;25.20;47.80
22544;DHT22;11438;52.044;8.716;2022-09-03T19:09:09;25.00;48.20
22544;DHT22;11438;52.044;8.716;2022-09-03T19:21:38;24.60;49.10
22544;DHT22;11438;52.044;8.716;2022-09-03T19:24:27;24.50;49.90
22544;DHT22;11438;52.044;8.716;2022-09-03T19:36:50;24.20;49.30
22544;DHT22;11438;52.044;8.716;2022-09-03T19:49:12;23.90;50.10
22544;DHT22;11438;52.044;8.716;2022-09-03T19:54:53;23.70;50.00
22544;DHT22;11438;52.044;8.716;2022-09-03T19:57:39;23.70;50.70
22544;DHT22;11438;52.044;8.716;2022-09-03T20:00:24;23.60;50.90
22544;DHT22;11438;52.044;8.716;2022-09-03T20:03:10;23.60;50.80
22544;DHT22;11438;52.044;8.716;2022-09-03T20:05:56;23.50;51.40
22544;DHT22;11438;52.044;8.716;2022-09-03T20:08:41;23.50;50.70
22544;DHT22;11438;52.044;8.716;2022-09-03T20:11:27;23.40;50.60
22544;DHT22;11438;52.044;8.716;2022-09-03T20:13:55;23.30;51.00
22544;DHT22;11438;52.044;8.716;2022-09-03T20:25:37;23.10;50.80
22544;DHT22;11438;52.044;8.716;2022-09-03T20:28:22;23.10;51.00